createdAt,value
2022-11-06T00:01:12.399Z,4.72
2022-11-06T00:03:40.667Z,4.47
2022-11-06T00:06:34.520Z,4.68
2022-11-06T00:09:05.725Z,4.35
2022-11-06T00:11:33.515Z,3.95
2022-11-06T00:14:02.388Z,3.70
2022-11-06T00:16:30.107Z,4.18
2022-11-06T00:19:01.153Z,3.50
2022-11-06T00:21:30.842Z,3.38
2022-11-06T00:24:01.388Z,3.13
2022-11-06T00:26:30.683Z,2.83
2022-11-06T00:28:59.313Z,2.67
2022-11-06T00:31:30.197Z,2.90
2022-11-06T00:33:59.982Z,2.45
2022-11-06T00:36:30.510Z,2.45
2022-11-06T00:38:59.313Z,1.90
2022-11-06T00:41:27.369Z,1.98
2022-11-06T00:43:58.266Z,2.45
2022-11-06T00:46:27.053Z,2.40
2022-11-06T00:48:55.644Z,2.50
2022-11-06T00:51:26.665Z,2.83
2022-11-06T00:54:00.133Z,2.85
2022-11-06T00:56:28.767Z,2.70
2022-11-06T00:58:58.920Z,2.70
2022-11-06T01:01:29.867Z,2.78
2022-11-06T01:04:06.717Z,3.10
2022-11-06T01:06:37.176Z,2.75
2022-11-06T01:09:06.715Z,3.65
2022-11-06T01:12:11.000Z,2.80
2022-11-06T01:14:29.644Z,2.97
2022-11-06T01:16:57.618Z,2.30
2022-11-06T01:19:25.656Z,2.95
2022-11-06T01:21:54.370Z,2.50
2022-11-06T01:24:25.126Z,1.95
2022-11-06T01:27:24.368Z,2.20
2022-11-06T01:29:41.320Z,1.92
2022-11-06T01:32:09.496Z,2.28
2022-11-06T01:34:37.121Z,2.20
2022-11-06T01:37:05.222Z,1.65
2022-11-06T01:39:33.304Z,2.55
2022-11-06T01:42:01.182Z,2.38
2022-11-06T01:44:41.370Z,2.22
2022-11-06T01:47:28.645Z,2.80
2022-11-06T01:50:00.616Z,2.50
2022-11-06T01:52:30.963Z,2.67
2022-11-06T01:55:14.230Z,2.15
2022-11-06T01:57:42.737Z,2.08
2022-11-06T02:00:11.378Z,2.10
2022-11-06T02:02:40.098Z,2.40
2022-11-06T02:05:08.543Z,2.50
2022-11-06T02:07:37.595Z,2.20
2022-11-06T02:10:07.278Z,2.33
2022-11-06T02:12:40.784Z,2.90
2022-11-06T02:15:31.092Z,2.65
2022-11-06T02:18:19.412Z,2.80
2022-11-06T02:21:12.193Z,2.80
2022-11-06T02:24:07.980Z,2.70
2022-11-06T02:26:54.564Z,2.58
2022-11-06T02:29:32.822Z,2.10
2022-11-06T02:32:07.040Z,1.95
2022-11-06T02:34:38.278Z,2.33
2022-11-06T02:37:14.383Z,2.53
2022-11-06T02:39:45.020Z,2.85
2022-11-06T02:42:16.834Z,3.50
2022-11-06T02:44:46.519Z,2.70
2022-11-06T02:47:15.518Z,2.50
2022-11-06T02:50:04.787Z,2.67
2022-11-06T02:52:37.970Z,2.40
2022-11-06T02:55:25.010Z,2.00
2022-11-06T02:57:58.240Z,2.47
2022-11-06T03:00:27.820Z,2.47
2022-11-06T03:03:06.362Z,2.92
2022-11-06T03:05:39.356Z,3.60
2022-11-06T03:08:39.796Z,3.60
2022-11-06T03:11:22.902Z,3.80
2022-11-06T03:13:59.077Z,3.47
2022-11-06T03:16:47.961Z,3.70
2022-11-06T03:19:22.573Z,3.70
2022-11-06T03:22:05.480Z,3.75
2022-11-06T03:24:48.831Z,3.95
2022-11-06T03:27:39.097Z,4.90
2022-11-06T03:30:13.853Z,4.25
2022-11-06T03:32:52.321Z,3.90
2022-11-06T03:35:22.080Z,3.90
2022-11-06T03:38:11.136Z,3.63
2022-11-06T03:40:45.052Z,3.90
2022-11-06T03:43:17.356Z,4.18
2022-11-06T03:45:49.658Z,4.30
2022-11-06T03:48:42.437Z,4.65
2022-11-06T03:51:40.801Z,4.40
2022-11-06T03:54:17.073Z,3.80
2022-11-06T03:56:53.705Z,4.07
2022-11-06T03:59:25.452Z,4.60
2022-11-06T04:01:56.846Z,3.63
2022-11-06T04:04:26.722Z,3.88
2022-11-06T04:07:02.046Z,3.70
2022-11-06T04:09:52.562Z,3.70
2022-11-06T04:12:42.850Z,3.83
2022-11-06T04:15:14.950Z,3.58
2022-11-06T04:17:42.646Z,3.80
2022-11-06T04:20:34.488Z,3.47
2022-11-06T04:23:14.464Z,3.60
2022-11-06T04:26:34.427Z,4.15
2022-11-06T04:29:43.841Z,3.15
2022-11-06T04:32:38.037Z,3.33
2022-11-06T04:35:09.413Z,3.38
2022-11-06T04:37:49.003Z,3.92
2022-11-06T04:40:32.427Z,2.90
2022-11-06T04:43:07.532Z,3.10
2022-11-06T04:45:40.127Z,3.05
2022-11-06T04:48:09.060Z,3.15
2022-11-06T04:50:50.682Z,2.45
2022-11-06T04:53:20.685Z,3.15
2022-11-06T04:55:52.699Z,3.13
2022-11-06T04:58:20.463Z,3.08
2022-11-06T05:00:50.830Z,3.03
2022-11-06T05:03:19.503Z,2.85
2022-11-06T05:05:47.305Z,2.88
2022-11-06T05:08:17.033Z,2.75
2022-11-06T05:10:45.330Z,3.28
2022-11-06T05:13:14.504Z,3.25
2022-11-06T05:15:42.518Z,3.08
2022-11-06T05:18:10.986Z,3.42
2022-11-06T05:20:38.968Z,3.03
2022-11-06T05:23:06.687Z,3.40
2022-11-06T05:25:36.961Z,3.65
2022-11-06T05:28:07.274Z,3.65
2022-11-06T05:30:36.784Z,3.13
2022-11-06T05:33:04.497Z,3.20
2022-11-06T05:35:33.006Z,3.40
2022-11-06T05:38:02.902Z,3.10
2022-11-06T05:40:31.026Z,3.38
2022-11-06T05:42:58.877Z,3.13
2022-11-06T05:45:26.478Z,3.08
2022-11-06T05:47:54.337Z,3.08
2022-11-06T05:50:22.456Z,3.00
2022-11-06T05:52:50.568Z,2.28
2022-11-06T05:55:18.562Z,2.90
2022-11-06T05:57:46.302Z,2.65
2022-11-06T06:00:14.420Z,2.60
2022-11-06T06:02:43.588Z,2.30
2022-11-06T06:05:11.521Z,2.33
2022-11-06T06:07:39.253Z,1.73
2022-11-06T06:10:09.021Z,1.83
2022-11-06T06:12:36.720Z,1.55
2022-11-06T06:15:06.407Z,1.40
2022-11-06T06:17:35.306Z,1.38
2022-11-06T06:20:03.457Z,1.67
2022-11-06T06:22:31.131Z,1.30
2022-11-06T06:24:58.858Z,1.25
2022-11-06T06:27:27.769Z,1.50
2022-11-06T06:29:55.432Z,1.10
2022-11-06T06:32:23.390Z,1.13
2022-11-06T06:34:51.145Z,0.95
2022-11-06T06:37:20.230Z,1.10
2022-11-06T06:39:48.189Z,1.40
2022-11-06T06:42:15.898Z,1.00
2022-11-06T06:44:43.499Z,1.13
2022-11-06T06:47:11.167Z,1.30
2022-11-06T06:49:38.928Z,1.85
2022-11-06T06:52:06.702Z,1.67
2022-11-06T06:54:34.478Z,2.20
2022-11-06T06:57:02.071Z,1.92
2022-11-06T06:59:30.039Z,2.38
2022-11-06T07:01:58.157Z,2.80
2022-11-06T07:04:26.154Z,3.05
2022-11-06T07:06:55.084Z,2.70
2022-11-06T07:09:24.290Z,2.78
2022-11-06T07:11:52.063Z,2.00
2022-11-06T07:14:19.699Z,2.20
2022-11-06T07:16:51.141Z,2.05
2022-11-06T07:19:21.875Z,1.90
2022-11-06T07:21:53.823Z,2.20
2022-11-06T07:24:21.594Z,2.35
2022-11-06T07:26:50.074Z,2.35
2022-11-06T07:29:17.792Z,2.22
2022-11-06T07:31:45.630Z,2.25
2022-11-06T07:34:14.121Z,2.45
2022-11-06T07:36:42.079Z,2.25
2022-11-06T07:39:09.886Z,2.58
2022-11-06T07:41:38.012Z,2.72
2022-11-06T07:44:06.229Z,2.28
2022-11-06T07:46:34.196Z,2.00
2022-11-06T07:49:02.043Z,2.00
2022-11-06T07:51:29.897Z,2.42
2022-11-06T07:53:57.618Z,2.78
2022-11-06T07:56:25.643Z,2.70
2022-11-06T07:58:53.446Z,2.65
2022-11-06T08:01:21.282Z,2.40
2022-11-06T08:03:49.147Z,2.30
2022-11-06T08:06:17.655Z,6.03
2022-11-06T08:08:45.386Z,3.22
2022-11-06T08:11:16.235Z,2.85
2022-11-06T08:13:44.299Z,2.70
2022-11-06T08:16:15.172Z,2.60
2022-11-06T08:18:43.142Z,2.25
2022-11-06T08:21:10.862Z,2.85
2022-11-06T08:23:38.619Z,2.50
2022-11-06T08:26:07.473Z,2.50
2022-11-06T08:28:35.789Z,2.40
2022-11-06T08:31:05.941Z,2.65
2022-11-06T08:33:37.211Z,2.78
2022-11-06T08:36:07.165Z,2.80
2022-11-06T08:38:36.927Z,3.08
2022-11-06T08:41:09.837Z,3.08
2022-11-06T08:43:38.274Z,3.60
2022-11-06T08:46:07.432Z,4.00
2022-11-06T08:48:35.401Z,6.10
2022-11-06T08:51:06.228Z,7.15
2022-11-06T08:53:34.426Z,7.78
2022-11-06T08:56:05.807Z,6.45
2022-11-06T08:58:34.669Z,14.38
2022-11-06T09:01:02.621Z,7.82
2022-11-06T09:03:30.328Z,5.80
2022-11-06T09:05:58.183Z,4.97
2022-11-06T09:08:26.144Z,3.22
2022-11-06T09:10:58.470Z,3.92
2022-11-06T09:13:27.488Z,3.08
2022-11-06T09:15:55.235Z,2.65
2022-11-06T09:18:22.885Z,3.85
2022-11-06T09:20:56.292Z,4.38
2022-11-06T09:23:25.317Z,4.70
2022-11-06T09:25:52.992Z,5.13
2022-11-06T09:28:21.098Z,7.22
2022-11-06T09:30:48.938Z,8.05
2022-11-06T09:33:17.733Z,9.18
2022-11-06T09:35:45.761Z,8.75
2022-11-06T09:38:15.780Z,10.13
2022-11-06T09:41:00.370Z,14.00
2022-11-06T09:44:06.668Z,14.32
2022-11-06T09:46:47.528Z,10.55
2022-11-06T09:49:30.759Z,9.23
2022-11-06T09:52:02.354Z,7.90
2022-11-06T09:54:43.060Z,7.47
2022-11-06T09:57:23.738Z,6.78
2022-11-06T09:59:51.977Z,6.40
2022-11-06T10:02:32.147Z,5.95
2022-11-06T10:05:10.912Z,5.15
2022-11-06T10:07:41.524Z,4.57
2022-11-06T10:10:16.831Z,4.38
2022-11-06T10:13:01.950Z,4.40
2022-11-06T10:15:48.033Z,5.20
2022-11-06T10:19:01.136Z,5.63
2022-11-06T10:21:41.066Z,6.68
2022-11-06T10:24:42.804Z,8.15
2022-11-06T10:27:16.037Z,8.00
2022-11-06T10:30:13.265Z,6.95
2022-11-06T10:33:22.622Z,6.60
2022-11-06T10:35:55.467Z,5.90
2022-11-06T10:38:33.797Z,4.88
2022-11-06T10:41:02.367Z,4.63
2022-11-06T10:43:34.941Z,4.03
2022-11-06T10:46:08.828Z,5.68
2022-11-06T10:48:47.028Z,6.53
2022-11-06T10:51:44.659Z,5.60
2022-11-06T10:54:43.018Z,5.40
2022-11-06T10:57:23.989Z,4.53
2022-11-06T10:59:52.647Z,4.15
2022-11-06T11:02:35.160Z,4.63
2022-11-06T11:05:10.703Z,6.28
2022-11-06T11:07:38.744Z,8.35
2022-11-06T11:10:32.602Z,7.68
2022-11-06T11:13:08.058Z,7.95
2022-11-06T11:15:46.055Z,10.80
2022-11-06T11:20:46.020Z,8.45
2022-11-06T11:23:20.314Z,9.30
2022-11-06T11:25:57.022Z,7.90
2022-11-06T11:28:30.151Z,8.25
2022-11-06T11:31:03.870Z,7.30
2022-11-06T11:33:32.777Z,7.20
2022-11-06T11:36:02.719Z,6.75
2022-11-06T11:38:30.857Z,6.30
2022-11-06T11:41:12.480Z,7.45
2022-11-06T11:43:42.190Z,8.25
2022-11-06T11:46:09.848Z,8.50
2022-11-06T11:48:49.969Z,10.38
2022-11-06T11:51:40.807Z,11.18
2022-11-06T11:54:11.387Z,12.18
2022-11-06T11:57:04.820Z,11.80
2022-11-06T11:59:37.096Z,9.90
2022-11-06T12:02:17.150Z,10.90
2022-11-06T12:04:52.978Z,7.78
2022-11-06T12:07:25.461Z,6.57
2022-11-06T12:09:53.326Z,6.70
2022-11-06T12:12:32.378Z,5.97
2022-11-06T12:15:11.490Z,5.15
2022-11-06T12:17:41.430Z,5.50
2022-11-06T12:20:20.436Z,5.68
2022-11-06T12:22:53.258Z,5.57
2022-11-06T12:25:36.249Z,4.88
2022-11-06T12:28:12.810Z,4.93
2022-11-06T12:30:44.327Z,7.30
2022-11-06T12:33:19.781Z,7.90
2022-11-06T12:36:08.348Z,9.60
2022-11-06T12:38:48.939Z,9.10
2022-11-06T12:41:28.211Z,12.23
2022-11-06T12:43:57.069Z,11.45
2022-11-06T12:46:33.535Z,11.20
2022-11-06T12:49:01.251Z,10.70
2022-11-06T12:51:45.502Z,13.73
2022-11-06T12:54:16.066Z,12.50
2022-11-06T12:56:46.912Z,13.95
2022-11-06T12:59:42.344Z,14.30
2022-11-06T13:02:41.469Z,12.88
2022-11-06T13:05:15.317Z,13.65
2022-11-06T13:08:17.276Z,11.63
2022-11-06T13:11:12.580Z,10.80
2022-11-06T13:13:58.793Z,9.90
2022-11-06T13:16:39.761Z,9.90
2022-11-06T13:19:56.279Z,8.65
2022-11-06T13:22:38.911Z,7.65
2022-11-06T13:25:22.807Z,6.90
2022-11-06T13:27:56.540Z,5.38
2022-11-06T13:30:24.920Z,4.55
2022-11-06T13:33:10.865Z,4.63
2022-11-06T13:35:41.851Z,5.30
2022-11-06T13:38:17.354Z,5.13
2022-11-06T13:40:48.566Z,5.03
2022-11-06T13:43:22.564Z,5.20
2022-11-06T13:46:31.241Z,5.05
2022-11-06T13:51:46.993Z,4.28
2022-11-06T13:54:17.704Z,3.53
2022-11-06T13:57:13.642Z,5.15
2022-11-06T13:59:58.469Z,4.45
2022-11-06T14:02:47.783Z,4.70
2022-11-06T14:05:24.246Z,4.40
2022-11-06T14:07:53.962Z,3.65
2022-11-06T14:10:34.541Z,3.60
2022-11-06T14:13:07.328Z,3.38
2022-11-06T14:15:42.127Z,3.28
2022-11-06T14:18:21.377Z,3.13
2022-11-06T14:20:49.105Z,3.00
2022-11-06T14:23:28.925Z,3.22
2022-11-06T14:26:12.320Z,3.13
2022-11-06T14:28:44.125Z,5.10
2022-11-06T14:31:54.722Z,6.88
2022-11-06T14:34:33.825Z,13.77
2022-11-06T14:37:20.158Z,12.23
2022-11-06T14:39:54.186Z,11.63
2022-11-06T14:42:27.316Z,14.70
2022-11-06T14:45:00.976Z,14.63
2022-11-06T14:47:39.939Z,11.25
2022-11-06T14:50:10.068Z,8.82
2022-11-06T14:52:55.925Z,7.20
2022-11-06T14:55:33.039Z,5.20
2022-11-06T15:01:10.316Z,4.60
2022-11-06T15:03:41.150Z,3.70
2022-11-06T15:06:35.041Z,3.35
2022-11-06T15:09:35.832Z,2.72
2022-11-06T15:12:08.260Z,2.55
2022-11-06T15:14:35.993Z,2.53
2022-11-06T15:17:17.496Z,2.13
2022-11-06T15:19:59.761Z,2.05
2022-11-06T15:22:44.779Z,2.28
2022-11-06T15:25:27.851Z,1.77
2022-11-06T15:28:04.375Z,1.95
2022-11-06T15:30:41.379Z,2.28
2022-11-06T15:35:41.395Z,2.10
2022-11-06T15:38:22.290Z,2.33
2022-11-06T15:40:57.161Z,1.80
2022-11-06T15:43:33.383Z,1.67
2022-11-06T15:46:19.799Z,2.17
2022-11-06T15:48:47.715Z,1.92
2022-11-06T15:51:29.806Z,2.17
2022-11-06T15:53:57.499Z,2.13
2022-11-06T15:56:35.179Z,2.38
2022-11-06T15:59:09.244Z,1.90
2022-11-06T16:01:37.374Z,2.72
2022-11-06T16:04:16.176Z,3.00
2022-11-06T16:06:45.167Z,3.60
2022-11-06T16:09:19.552Z,3.40
2022-11-06T16:11:50.139Z,3.10
2022-11-06T16:14:18.733Z,3.03
2022-11-06T16:16:56.006Z,2.40
2022-11-06T16:19:31.473Z,2.70
2022-11-06T16:22:13.417Z,2.55
2022-11-06T16:24:49.528Z,2.20
2022-11-06T16:27:17.631Z,2.20
2022-11-06T16:29:52.205Z,1.92
2022-11-06T16:32:23.783Z,2.22
2022-11-06T16:34:52.885Z,2.63
2022-11-06T16:37:21.762Z,2.85
2022-11-06T16:39:53.118Z,2.80
2022-11-06T16:42:36.218Z,2.35
2022-11-06T16:45:24.236Z,2.58
2022-11-06T16:48:07.192Z,2.33
2022-11-06T16:50:48.169Z,2.47
2022-11-06T16:53:28.040Z,2.28
2022-11-06T16:56:06.521Z,2.00
2022-11-06T16:58:56.805Z,2.53
2022-11-06T17:01:26.980Z,2.63
2022-11-06T17:04:00.843Z,2.33
2022-11-06T17:06:33.097Z,2.35
2022-11-06T17:09:09.088Z,2.47
2022-11-06T17:11:38.921Z,2.87
2022-11-06T17:14:19.225Z,2.60
2022-11-06T17:16:50.070Z,2.80
2022-11-06T17:19:21.574Z,2.50
2022-11-06T17:21:50.305Z,2.20
2022-11-06T17:24:36.062Z,2.80
2022-11-06T17:27:05.604Z,3.00
2022-11-06T17:29:36.601Z,3.95
2022-11-06T17:32:05.280Z,5.38
2022-11-06T17:34:32.972Z,6.35
2022-11-06T17:37:00.798Z,5.80
2022-11-06T17:39:28.450Z,5.63
2022-11-06T17:41:57.307Z,5.20
2022-11-06T17:44:26.087Z,5.25
2022-11-06T17:46:53.773Z,5.20
2022-11-06T17:49:21.655Z,4.72
2022-11-06T17:51:52.153Z,5.53
2022-11-06T17:54:22.327Z,4.63
2022-11-06T17:56:51.516Z,3.35
2022-11-06T17:59:20.600Z,3.60
2022-11-06T18:01:50.607Z,3.72
2022-11-06T18:04:23.243Z,3.78
2022-11-06T18:06:53.127Z,3.58
2022-11-06T18:09:22.441Z,2.95
2022-11-06T18:11:51.434Z,3.20
2022-11-06T18:14:19.878Z,3.08
2022-11-06T18:16:48.855Z,3.22
2022-11-06T18:19:19.317Z,3.10
2022-11-06T18:21:48.033Z,3.50
2022-11-06T18:24:15.824Z,3.50
2022-11-06T18:26:43.565Z,3.40
2022-11-06T18:29:12.839Z,4.65
2022-11-06T18:31:41.527Z,5.35
2022-11-06T18:34:20.323Z,6.45
2022-11-06T18:36:50.666Z,8.15
2022-11-06T18:39:18.605Z,8.48
2022-11-06T18:41:46.513Z,7.38
2022-11-06T18:44:15.832Z,7.43
2022-11-06T18:46:44.922Z,6.80
2022-11-06T18:49:12.819Z,6.22
2022-11-06T18:51:40.762Z,5.55
2022-11-06T18:54:11.171Z,4.97
2022-11-06T18:56:39.151Z,4.18
2022-11-06T18:59:08.951Z,4.40
2022-11-06T19:01:36.924Z,3.80
2022-11-06T19:04:05.629Z,3.60
2022-11-06T19:06:33.431Z,4.22
2022-11-06T19:09:02.190Z,5.03
2022-11-06T19:11:30.287Z,5.68
2022-11-06T19:13:57.974Z,6.82
2022-11-06T19:16:25.644Z,7.22
2022-11-06T19:21:30.950Z,6.83
2022-11-06T19:24:03.941Z,6.45
2022-11-06T19:26:33.187Z,5.47
2022-11-06T19:29:01.801Z,5.28
2022-11-06T19:31:30.568Z,4.80
2022-11-06T19:34:00.031Z,4.93
2022-11-06T19:36:29.119Z,15.27
2022-11-06T19:38:58.724Z,28.90
2022-11-06T19:41:28.745Z,33.15
2022-11-06T19:43:56.949Z,23.77
2022-11-06T19:46:33.932Z,17.35
2022-11-06T19:49:08.277Z,14.80
2022-11-06T19:51:43.081Z,10.88
2022-11-06T19:54:13.687Z,9.05
2022-11-06T19:57:28.577Z,6.85
2022-11-06T19:59:29.554Z,6.32
2022-11-06T20:01:57.812Z,6.53
2022-11-06T20:04:25.580Z,5.70
2022-11-06T20:06:53.309Z,5.55
2022-11-06T20:09:21.087Z,5.43
2022-11-06T20:11:49.373Z,5.85
2022-11-06T20:14:21.979Z,5.70
2022-11-06T20:16:51.032Z,6.25
2022-11-06T20:19:18.798Z,6.80
2022-11-06T20:21:47.431Z,7.32
2022-11-06T20:24:15.530Z,7.80
2022-11-06T20:26:43.174Z,8.18
2022-11-06T20:29:10.924Z,7.80
2022-11-06T20:31:38.506Z,8.07
2022-11-06T20:34:06.171Z,10.55
2022-11-06T20:36:36.267Z,10.38
2022-11-06T20:39:04.416Z,11.45
2022-11-06T20:41:32.172Z,10.10
2022-11-06T20:43:59.893Z,10.15
2022-11-06T20:46:27.702Z,8.70
2022-11-06T20:48:55.466Z,7.80
2022-11-06T20:51:27.382Z,7.32
2022-11-06T20:53:55.578Z,6.80
2022-11-06T20:56:27.277Z,6.50
2022-11-06T20:58:56.246Z,7.95
2022-11-06T21:01:27.299Z,7.80
2022-11-06T21:03:57.020Z,7.35
2022-11-06T21:06:27.555Z,7.13
2022-11-06T21:08:55.802Z,7.22
2022-11-06T21:11:26.467Z,6.60
2022-11-06T21:13:55.337Z,5.78
2022-11-06T21:16:25.821Z,5.32
2022-11-06T21:18:54.250Z,5.13
2022-11-06T21:21:24.956Z,5.57
2022-11-06T21:23:53.921Z,5.50
2022-11-06T21:26:25.088Z,4.78
2022-11-06T21:28:52.976Z,5.38
2022-11-06T21:31:26.163Z,5.95
2022-11-06T21:33:56.597Z,6.25
2022-11-06T21:36:37.891Z,6.15
2022-11-06T21:39:08.834Z,7.13
2022-11-06T21:41:37.162Z,7.43
2022-11-06T21:44:06.811Z,6.72
2022-11-06T21:46:35.036Z,6.05
2022-11-06T21:49:02.786Z,5.95
2022-11-06T21:51:32.925Z,5.13
2022-11-06T21:54:19.239Z,5.18
2022-11-06T21:56:48.958Z,5.72
2022-11-06T21:59:19.962Z,6.65
2022-11-06T22:01:47.844Z,9.57
2022-11-06T22:04:16.006Z,8.18
2022-11-06T22:06:44.846Z,7.85
2022-11-06T22:09:14.023Z,6.53
2022-11-06T22:11:43.855Z,6.53
2022-11-06T22:14:16.986Z,6.25
2022-11-06T22:16:47.076Z,6.15
2022-11-06T22:19:17.789Z,5.22
2022-11-06T22:21:45.870Z,4.72
2022-11-06T22:24:14.646Z,4.88
2022-11-06T22:26:42.654Z,3.90
2022-11-06T22:29:14.500Z,4.50
2022-11-06T22:31:42.252Z,5.35
2022-11-06T22:34:11.846Z,7.00
2022-11-06T22:36:41.982Z,8.95
2022-11-06T22:39:12.003Z,8.05
2022-11-06T22:41:40.116Z,7.63
2022-11-06T22:44:08.036Z,7.50
2022-11-06T22:46:35.921Z,6.78
2022-11-06T22:49:04.854Z,5.78
2022-11-06T22:51:33.627Z,5.82
2022-11-06T22:54:03.821Z,5.35
2022-11-06T22:56:33.019Z,4.35
2022-11-06T22:59:03.276Z,3.90
2022-11-06T23:01:34.955Z,3.72
2022-11-06T23:04:09.448Z,4.38
2022-11-06T23:06:37.471Z,4.63
2022-11-06T23:09:05.219Z,5.15
2022-11-06T23:11:33.233Z,6.55
2022-11-06T23:14:07.434Z,8.50
2022-11-06T23:16:55.471Z,11.35
2022-11-06T23:19:24.098Z,13.80
2022-11-06T23:21:52.827Z,12.80
2022-11-06T23:24:20.457Z,9.90
2022-11-06T23:26:48.289Z,8.45
2022-11-06T23:29:15.938Z,6.40
2022-11-06T23:31:43.637Z,6.47
2022-11-06T23:34:11.663Z,6.80
2022-11-06T23:36:39.492Z,6.80
2022-11-06T23:39:07.260Z,7.95
2022-11-06T23:41:48.739Z,6.95
2022-11-06T23:44:34.920Z,6.15
2022-11-06T23:47:03.010Z,5.60
2022-11-06T23:49:30.931Z,4.72
2022-11-06T23:51:58.683Z,5.18
2022-11-06T23:54:26.520Z,3.97
2022-11-06T23:56:54.219Z,4.38
2022-11-06T23:59:21.973Z,4.32
